AUA22 VRMM-LOWW
Flight info
| Callsign | AUA22 |
|---|---|
| Flight time | N/A |
| Altitude | 36000 |
| Route | LELEM2B LELEM L894 DONSA UL425 ASPUX L425 DEDSO/N0480F380 L425 GOBRO DCT PURDA DCT ALNUG DCT PUSON L883 KITUB Y511 PMA Z712 WEJ L677 DARAX/N0474F400 L677 CVO L617 NOZ L551 ANTAR UN133 PEREN UL863 EVIVI DCT OKANA DCT PARAK DCT BALUX DCT TORNO DCT NATEX NATEX2W |
| Aircraft | B772/H-SDE2E3FGHIJ5LORVWXY/LB1D1 |
Departure
| Time | N/A |
|---|---|
| Airport | Velana International Airport (VRMM) |
Arrival
| Time | 2026-04-23 09:39 |
|---|---|
| Airport | Vienna International Airport (LOWW) |
| Time | Latitude | Longitude | Altitude | Speed | Heading |
|---|---|---|---|---|---|
| 2026-04-23 06:05 | 27.64340 | 34.79021 | 39844 ft | 420 kts | 307° |
| 2026-04-23 06:05 | 27.68587 | 34.74532 | 39854 ft | 417 kts | 307° |
| 2026-04-23 06:06 | 27.72802 | 34.70058 | 39856 ft | 416 kts | 307° |
| 2026-04-23 06:06 | 27.77015 | 34.65579 | 39892 ft | 416 kts | 307° |
| 2026-04-23 06:07 | 27.81245 | 34.61079 | 39880 ft | 419 kts | 307° |
| 2026-04-23 06:07 | 27.85499 | 34.56550 | 39880 ft | 421 kts | 307° |
| 2026-04-23 06:08 | 27.89776 | 34.51994 | 39880 ft | 424 kts | 307° |
| 2026-04-23 06:08 | 27.94072 | 34.47413 | 39900 ft | 425 kts | 307° |
| 2026-04-23 06:09 | 27.98381 | 34.42815 | 39892 ft | 426 kts | 307° |
| 2026-04-23 06:09 | 28.02286 | 34.37948 | 39886 ft | 417 kts | 300° |
| 2026-04-23 06:10 | 28.05943 | 34.32849 | 39892 ft | 417 kts | 300° |
| 2026-04-23 06:10 | 28.09613 | 34.27748 | 39889 ft | 418 kts | 300° |
| 2026-04-23 06:11 | 28.13290 | 34.22648 | 39923 ft | 418 kts | 300° |
| 2026-04-23 06:11 | 28.16969 | 34.17538 | 39892 ft | 419 kts | 300° |
| 2026-04-23 06:12 | 28.20648 | 34.12430 | 39891 ft | 418 kts | 300° |
| 2026-04-23 06:12 | 28.26147 | 34.04793 | 39904 ft | 417 kts | 300° |
| 2026-04-23 06:13 | 28.29787 | 33.99715 | 39901 ft | 415 kts | 300° |
| 2026-04-23 06:13 | 28.33451 | 33.94608 | 39958 ft | 421 kts | 300° |
| 2026-04-23 06:14 | 28.37178 | 33.89401 | 39929 ft | 428 kts | 301° |
| 2026-04-23 06:14 | 28.40911 | 33.84186 | 39931 ft | 420 kts | 301° |
| 2026-04-23 06:15 | 28.44576 | 33.79073 | 39930 ft | 416 kts | 300° |
| 2026-04-23 06:15 | 28.48219 | 33.73956 | 39913 ft | 416 kts | 300° |
| 2026-04-23 06:16 | 28.51829 | 33.68891 | 39923 ft | 415 kts | 301° |
| 2026-04-23 06:16 | 28.55473 | 33.63773 | 39979 ft | 419 kts | 300° |
| 2026-04-23 06:17 | 28.59154 | 33.58584 | 39923 ft | 423 kts | 301° |
| 2026-04-23 06:17 | 28.62854 | 33.53363 | 39919 ft | 425 kts | 301° |
| 2026-04-23 06:18 | 28.66569 | 33.48131 | 39929 ft | 425 kts | 301° |
| 2026-04-23 06:18 | 28.70286 | 33.42894 | 39932 ft | 425 kts | 301° |
| 2026-04-23 06:19 | 28.73994 | 33.37661 | 39933 ft | 424 kts | 301° |
| 2026-04-23 06:19 | 28.77693 | 33.32433 | 39931 ft | 423 kts | 301° |
| 2026-04-23 06:20 | 28.81383 | 33.27208 | 39927 ft | 423 kts | 301° |
| 2026-04-23 06:20 | 28.85066 | 33.21987 | 39931 ft | 422 kts | 301° |
| 2026-04-23 06:21 | 28.88742 | 33.16770 | 39938 ft | 422 kts | 301° |
| 2026-04-23 06:21 | 28.92414 | 33.11551 | 39947 ft | 422 kts | 301° |
| 2026-04-23 06:22 | 28.96085 | 33.06328 | 39943 ft | 422 kts | 301° |
| 2026-04-23 06:22 | 28.99754 | 33.01100 | 39948 ft | 422 kts | 301° |
| 2026-04-23 06:23 | 29.03424 | 32.95864 | 39951 ft | 422 kts | 301° |
| 2026-04-23 06:23 | 29.07093 | 32.90625 | 39956 ft | 422 kts | 301° |
| 2026-04-23 06:24 | 29.10763 | 32.85376 | 39958 ft | 423 kts | 301° |
| 2026-04-23 06:24 | 29.14438 | 32.80113 | 39958 ft | 424 kts | 301° |
| 2026-04-23 06:25 | 29.18091 | 32.74876 | 39959 ft | 424 kts | 301° |
| 2026-04-23 06:25 | 29.21769 | 32.69595 | 39964 ft | 424 kts | 301° |
| 2026-04-23 06:26 | 29.25449 | 32.64305 | 39963 ft | 425 kts | 301° |
| 2026-04-23 06:26 | 29.29127 | 32.59008 | 39980 ft | 425 kts | 301° |
| 2026-04-23 06:27 | 29.32787 | 32.53685 | 39977 ft | 425 kts | 301° |
| 2026-04-23 06:27 | 29.36444 | 32.48341 | 39978 ft | 427 kts | 301° |
| 2026-04-23 06:28 | 29.40112 | 32.42984 | 39973 ft | 427 kts | 301° |
| 2026-04-23 06:28 | 29.43780 | 32.37624 | 39977 ft | 427 kts | 301° |
| 2026-04-23 06:29 | 29.47441 | 32.32264 | 39987 ft | 427 kts | 301° |
| 2026-04-23 06:29 | 29.51099 | 32.26901 | 39984 ft | 427 kts | 301° |
| 2026-04-23 06:30 | 29.54729 | 32.21574 | 39974 ft | 426 kts | 301° |
| 2026-04-23 06:30 | 29.58373 | 32.16216 | 39983 ft | 426 kts | 301° |
| 2026-04-23 06:31 | 29.62015 | 32.10857 | 39983 ft | 425 kts | 301° |
| 2026-04-23 06:31 | 29.65657 | 32.05491 | 40000 ft | 426 kts | 301° |
| 2026-04-23 06:32 | 29.69299 | 32.00115 | 39991 ft | 426 kts | 301° |
| 2026-04-23 06:32 | 29.72945 | 31.94728 | 39982 ft | 427 kts | 301° |
| 2026-04-23 06:33 | 29.76591 | 31.89334 | 39988 ft | 428 kts | 301° |
| 2026-04-23 06:33 | 29.80209 | 31.83904 | 39990 ft | 427 kts | 300° |
| 2026-04-23 06:34 | 29.83732 | 31.78407 | 40003 ft | 427 kts | 300° |
| 2026-04-23 06:34 | 29.87258 | 31.72901 | 39990 ft | 427 kts | 300° |
| 2026-04-23 06:35 | 29.90793 | 31.67404 | 39990 ft | 427 kts | 300° |
| 2026-04-23 06:35 | 29.94332 | 31.61910 | 39988 ft | 427 kts | 300° |
| 2026-04-23 06:36 | 29.97875 | 31.56420 | 39968 ft | 426 kts | 300° |
| 2026-04-23 06:36 | 30.01410 | 31.50930 | 39979 ft | 426 kts | 301° |
| 2026-04-23 06:37 | 30.04946 | 31.45430 | 39968 ft | 427 kts | 301° |
| 2026-04-23 06:37 | 30.08514 | 31.39948 | 39966 ft | 429 kts | 303° |
| 2026-04-23 06:38 | 30.12704 | 31.34960 | 39971 ft | 436 kts | 310° |
| 2026-04-23 06:38 | 30.17169 | 31.30224 | 39975 ft | 436 kts | 310° |
| 2026-04-23 06:39 | 30.21629 | 31.25471 | 39967 ft | 436 kts | 310° |
| 2026-04-23 06:39 | 30.26079 | 31.20699 | 39965 ft | 436 kts | 310° |
| 2026-04-23 06:40 | 30.30495 | 31.15949 | 39962 ft | 436 kts | 310° |
| 2026-04-23 06:40 | 30.34938 | 31.11160 | 39963 ft | 437 kts | 310° |
| 2026-04-23 06:41 | 30.39382 | 31.06366 | 39956 ft | 437 kts | 310° |
| 2026-04-23 06:41 | 30.43826 | 31.01564 | 39961 ft | 437 kts | 310° |
| 2026-04-23 06:42 | 30.48269 | 30.96759 | 39962 ft | 437 kts | 310° |
| 2026-04-23 06:42 | 30.52716 | 30.91942 | 39960 ft | 438 kts | 311° |
| 2026-04-23 06:43 | 30.57162 | 30.87119 | 39962 ft | 438 kts | 311° |
| 2026-04-23 06:43 | 30.61608 | 30.82292 | 39967 ft | 438 kts | 311° |
| 2026-04-23 06:44 | 30.66055 | 30.77457 | 39968 ft | 438 kts | 311° |
| 2026-04-23 06:44 | 30.70496 | 30.72621 | 39970 ft | 438 kts | 311° |
| 2026-04-23 06:45 | 30.74939 | 30.67777 | 39971 ft | 438 kts | 311° |
| 2026-04-23 06:45 | 30.79348 | 30.62963 | 39969 ft | 438 kts | 311° |
| 2026-04-23 06:46 | 30.83784 | 30.58114 | 39996 ft | 438 kts | 311° |
| 2026-04-23 06:46 | 30.88221 | 30.53257 | 39978 ft | 438 kts | 310° |
| 2026-04-23 06:47 | 30.91908 | 30.49216 | 39981 ft | 438 kts | 310° |
| 2026-04-23 06:47 | 30.96338 | 30.44354 | 39981 ft | 438 kts | 310° |
| 2026-04-23 06:48 | 31.00766 | 30.39488 | 39987 ft | 437 kts | 310° |
| 2026-04-23 06:48 | 31.05190 | 30.34621 | 39985 ft | 437 kts | 310° |
| 2026-04-23 06:49 | 31.08871 | 30.29149 | 39985 ft | 425 kts | 295° |
| 2026-04-23 06:49 | 31.11286 | 30.22934 | 39988 ft | 418 kts | 284° |
| 2026-04-23 06:50 | 31.13008 | 30.16451 | 39987 ft | 419 kts | 284° |
| 2026-04-23 06:50 | 31.14751 | 30.09952 | 39998 ft | 420 kts | 284° |
| 2026-04-23 06:51 | 31.16529 | 30.03440 | 39987 ft | 421 kts | 284° |
| 2026-04-23 06:51 | 31.18860 | 29.97176 | 39997 ft | 429 kts | 302° |
| 2026-04-23 06:52 | 31.23154 | 29.92225 | 39993 ft | 445 kts | 322° |
| 2026-04-23 06:52 | 31.28645 | 29.88757 | 40004 ft | 450 kts | 326° |
| 2026-04-23 06:53 | 31.34227 | 29.85399 | 39997 ft | 452 kts | 326° |
| 2026-04-23 06:53 | 31.39792 | 29.81979 | 40010 ft | 452 kts | 325° |
| 2026-04-23 06:54 | 31.45343 | 29.78511 | 39991 ft | 452 kts | 325° |
| 2026-04-23 06:54 | 31.50852 | 29.75051 | 39990 ft | 452 kts | 325° |
| 2026-04-23 06:55 | 31.56428 | 29.71544 | 39993 ft | 451 kts | 325° |
| 2026-04-23 06:55 | 31.61921 | 29.68087 | 39987 ft | 451 kts | 325° |
| 2026-04-23 06:56 | 31.67441 | 29.64609 | 39993 ft | 450 kts | 325° |
| 2026-04-23 06:56 | 31.72946 | 29.61135 | 39993 ft | 449 kts | 325° |
| 2026-04-23 06:57 | 31.78441 | 29.57663 | 39997 ft | 448 kts | 325° |
| 2026-04-23 06:57 | 31.83931 | 29.54189 | 40015 ft | 448 kts | 324° |
| 2026-04-23 06:58 | 31.89420 | 29.50710 | 40010 ft | 448 kts | 324° |
| 2026-04-23 06:58 | 31.94904 | 29.47230 | 40004 ft | 448 kts | 324° |
| 2026-04-23 06:59 | 32.00385 | 29.43749 | 40004 ft | 447 kts | 324° |
| 2026-04-23 06:59 | 32.05855 | 29.40259 | 40005 ft | 447 kts | 324° |
| 2026-04-23 07:00 | 32.11322 | 29.36761 | 40031 ft | 447 kts | 324° |
| 2026-04-23 07:00 | 32.16791 | 29.33257 | 40005 ft | 447 kts | 324° |
| 2026-04-23 07:01 | 32.22262 | 29.29750 | 40003 ft | 447 kts | 324° |
| 2026-04-23 07:01 | 32.27733 | 29.26245 | 40002 ft | 447 kts | 324° |
| 2026-04-23 07:02 | 32.33207 | 29.22737 | 40010 ft | 448 kts | 324° |
| 2026-04-23 07:02 | 32.38681 | 29.19222 | 40002 ft | 448 kts | 324° |
| 2026-04-23 07:03 | 32.44151 | 29.15704 | 40002 ft | 447 kts | 324° |
| 2026-04-23 07:03 | 32.49617 | 29.12184 | 40003 ft | 447 kts | 324° |
| 2026-04-23 07:04 | 32.55079 | 29.08661 | 40003 ft | 447 kts | 324° |
| 2026-04-23 07:04 | 32.60538 | 29.05135 | 40002 ft | 447 kts | 324° |
| 2026-04-23 07:05 | 32.65997 | 29.01604 | 40002 ft | 447 kts | 324° |
| 2026-04-23 07:05 | 32.71452 | 28.98070 | 40007 ft | 447 kts | 324° |
| 2026-04-23 07:06 | 32.76911 | 28.94530 | 40014 ft | 447 kts | 324° |
| 2026-04-23 07:06 | 32.82326 | 28.91013 | 40004 ft | 446 kts | 324° |
| 2026-04-23 07:07 | 32.87774 | 28.87469 | 39996 ft | 446 kts | 324° |
| 2026-04-23 07:07 | 32.93209 | 28.83929 | 39995 ft | 445 kts | 324° |
| 2026-04-23 07:08 | 32.98640 | 28.80387 | 40007 ft | 445 kts | 324° |
| 2026-04-23 07:08 | 33.04063 | 28.76845 | 39985 ft | 444 kts | 324° |
| 2026-04-23 07:09 | 33.09478 | 28.73302 | 39986 ft | 444 kts | 324° |
| 2026-04-23 07:09 | 33.14886 | 28.69759 | 40001 ft | 443 kts | 324° |
| 2026-04-23 07:10 | 33.20290 | 28.66214 | 40015 ft | 443 kts | 324° |
| 2026-04-23 07:10 | 33.25693 | 28.62664 | 40011 ft | 443 kts | 324° |
| 2026-04-23 07:11 | 33.31058 | 28.59135 | 39998 ft | 443 kts | 324° |
| 2026-04-23 07:12 | 33.39157 | 28.53798 | 39991 ft | 443 kts | 324° |
| 2026-04-23 07:12 | 33.44547 | 28.50239 | 39991 ft | 442 kts | 324° |
| 2026-04-23 07:13 | 33.49935 | 28.46677 | 39991 ft | 442 kts | 324° |
| 2026-04-23 07:13 | 33.55318 | 28.43112 | 40000 ft | 442 kts | 324° |
| 2026-04-23 07:14 | 33.60701 | 28.39543 | 39987 ft | 442 kts | 324° |
| 2026-04-23 07:14 | 33.66080 | 28.35971 | 40001 ft | 442 kts | 324° |
| 2026-04-23 07:15 | 33.71454 | 28.32396 | 39988 ft | 442 kts | 324° |
| 2026-04-23 07:15 | 33.76827 | 28.28818 | 39989 ft | 441 kts | 324° |
| 2026-04-23 07:16 | 33.82195 | 28.25233 | 39995 ft | 441 kts | 324° |
| 2026-04-23 07:16 | 33.87552 | 28.21619 | 39988 ft | 441 kts | 324° |
| 2026-04-23 07:17 | 33.92901 | 28.17999 | 39986 ft | 441 kts | 324° |
| 2026-04-23 07:17 | 33.98250 | 28.14377 | 39987 ft | 441 kts | 324° |
| 2026-04-23 07:18 | 34.03596 | 28.10753 | 39980 ft | 441 kts | 323° |
| 2026-04-23 07:18 | 34.08904 | 28.07150 | 40011 ft | 441 kts | 324° |
| 2026-04-23 07:19 | 34.14286 | 28.03492 | 39983 ft | 441 kts | 323° |
| 2026-04-23 07:19 | 34.19630 | 27.99854 | 39979 ft | 441 kts | 323° |
| 2026-04-23 07:20 | 34.24971 | 27.96213 | 39983 ft | 440 kts | 323° |
| 2026-04-23 07:20 | 34.30306 | 27.92571 | 39980 ft | 440 kts | 323° |
| 2026-04-23 07:21 | 34.35637 | 27.88925 | 40006 ft | 440 kts | 323° |
| 2026-04-23 07:21 | 34.40977 | 27.85268 | 39987 ft | 442 kts | 323° |
| 2026-04-23 07:22 | 34.46293 | 27.81621 | 39979 ft | 443 kts | 323° |
| 2026-04-23 07:22 | 34.51655 | 27.77939 | 39973 ft | 443 kts | 323° |
| 2026-04-23 07:23 | 34.57022 | 27.74244 | 39974 ft | 444 kts | 323° |
| 2026-04-23 07:23 | 34.62396 | 27.70531 | 39968 ft | 444 kts | 323° |
| 2026-04-23 07:24 | 34.67772 | 27.66808 | 39975 ft | 445 kts | 323° |
| 2026-04-23 07:24 | 34.73154 | 27.63077 | 39969 ft | 445 kts | 323° |
| 2026-04-23 07:25 | 34.78534 | 27.59342 | 39963 ft | 445 kts | 323° |
| 2026-04-23 07:25 | 34.83911 | 27.55604 | 39964 ft | 445 kts | 323° |
| 2026-04-23 07:26 | 34.89282 | 27.51864 | 39967 ft | 444 kts | 323° |
| 2026-04-23 07:26 | 34.94651 | 27.48119 | 39961 ft | 445 kts | 323° |
| 2026-04-23 07:27 | 35.00014 | 27.44373 | 39965 ft | 444 kts | 323° |
| 2026-04-23 07:27 | 35.05374 | 27.40624 | 39960 ft | 444 kts | 323° |
| 2026-04-23 07:28 | 35.10725 | 27.36874 | 39965 ft | 443 kts | 323° |
| 2026-04-23 07:28 | 35.16071 | 27.33123 | 39961 ft | 443 kts | 323° |
| 2026-04-23 07:29 | 35.21413 | 27.29368 | 39958 ft | 443 kts | 323° |
| 2026-04-23 07:29 | 35.26752 | 27.25610 | 39959 ft | 443 kts | 323° |
| 2026-04-23 07:30 | 35.32054 | 27.21872 | 39960 ft | 443 kts | 323° |
| 2026-04-23 07:30 | 35.37388 | 27.18105 | 39968 ft | 443 kts | 323° |
| 2026-04-23 07:31 | 35.42750 | 27.14369 | 39975 ft | 445 kts | 326° |
| 2026-04-23 07:31 | 35.48398 | 27.11145 | 39954 ft | 449 kts | 329° |
| 2026-04-23 07:32 | 35.54087 | 27.07984 | 39937 ft | 449 kts | 328° |
| 2026-04-23 07:32 | 35.59770 | 27.04793 | 39939 ft | 449 kts | 328° |
| 2026-04-23 07:33 | 35.65446 | 27.01582 | 39959 ft | 449 kts | 328° |
| 2026-04-23 07:33 | 35.71117 | 26.98365 | 39999 ft | 449 kts | 328° |
| 2026-04-23 07:34 | 35.76797 | 26.95138 | 39972 ft | 450 kts | 328° |
| 2026-04-23 07:34 | 35.82486 | 26.91904 | 39964 ft | 450 kts | 328° |
| 2026-04-23 07:35 | 35.88177 | 26.88662 | 39963 ft | 451 kts | 328° |
| 2026-04-23 07:35 | 35.93867 | 26.85413 | 39975 ft | 451 kts | 328° |
| 2026-04-23 07:36 | 35.98597 | 26.82706 | 39986 ft | 451 kts | 329° |
| 2026-04-23 07:36 | 36.04294 | 26.79441 | 39974 ft | 451 kts | 329° |
| 2026-04-23 07:37 | 36.09995 | 26.76170 | 39964 ft | 452 kts | 329° |
| 2026-04-23 07:37 | 36.15694 | 26.72894 | 39971 ft | 452 kts | 328° |
| 2026-04-23 07:38 | 36.21391 | 26.69614 | 39967 ft | 452 kts | 328° |
| 2026-04-23 07:38 | 36.27093 | 26.66326 | 39964 ft | 452 kts | 329° |
| 2026-04-23 07:39 | 36.32794 | 26.63028 | 39965 ft | 452 kts | 329° |
| 2026-04-23 07:39 | 36.38493 | 26.59720 | 39977 ft | 452 kts | 328° |
| 2026-04-23 07:40 | 36.44156 | 26.56428 | 39990 ft | 452 kts | 329° |
| 2026-04-23 07:40 | 36.49857 | 26.53109 | 39989 ft | 453 kts | 329° |
| 2026-04-23 07:41 | 36.55564 | 26.49782 | 39977 ft | 453 kts | 329° |
| 2026-04-23 07:41 | 36.61280 | 26.46450 | 39972 ft | 454 kts | 329° |
| 2026-04-23 07:42 | 36.66996 | 26.43112 | 39973 ft | 453 kts | 329° |
| 2026-04-23 07:42 | 36.72707 | 26.39771 | 39972 ft | 453 kts | 329° |
| 2026-04-23 07:43 | 36.78416 | 26.36424 | 39984 ft | 454 kts | 329° |
| 2026-04-23 07:43 | 36.84128 | 26.33071 | 39977 ft | 454 kts | 329° |
| 2026-04-23 07:44 | 36.89840 | 26.29710 | 39976 ft | 454 kts | 329° |
| 2026-04-23 07:44 | 36.95515 | 26.26368 | 39975 ft | 454 kts | 329° |
| 2026-04-23 07:45 | 37.01216 | 26.22974 | 39996 ft | 454 kts | 328° |
| 2026-04-23 07:45 | 37.06892 | 26.19502 | 39983 ft | 454 kts | 328° |
| 2026-04-23 07:46 | 37.12566 | 26.16017 | 39977 ft | 454 kts | 328° |
| 2026-04-23 07:46 | 37.18249 | 26.12530 | 39980 ft | 455 kts | 328° |
| 2026-04-23 07:47 | 37.23942 | 26.09038 | 39980 ft | 455 kts | 328° |
| 2026-04-23 07:47 | 37.29634 | 26.05542 | 39986 ft | 456 kts | 328° |
| 2026-04-23 07:48 | 37.35327 | 26.02038 | 39981 ft | 456 kts | 328° |
| 2026-04-23 07:48 | 37.41021 | 25.98527 | 39983 ft | 456 kts | 328° |
| 2026-04-23 07:49 | 37.46711 | 25.95013 | 39993 ft | 455 kts | 328° |
| 2026-04-23 07:49 | 37.52395 | 25.91496 | 40006 ft | 455 kts | 328° |
| 2026-04-23 07:50 | 37.58076 | 25.87976 | 39993 ft | 455 kts | 328° |
| 2026-04-23 07:50 | 37.63754 | 25.84454 | 39986 ft | 454 kts | 328° |
| 2026-04-23 07:51 | 37.69425 | 25.80933 | 39989 ft | 454 kts | 328° |
| 2026-04-23 07:51 | 37.75088 | 25.77410 | 39989 ft | 453 kts | 328° |
| 2026-04-23 07:52 | 37.80743 | 25.73885 | 39997 ft | 453 kts | 328° |
| 2026-04-23 07:52 | 37.86400 | 25.70352 | 39997 ft | 453 kts | 328° |
| 2026-04-23 07:53 | 37.92052 | 25.66817 | 39995 ft | 453 kts | 328° |
| 2026-04-23 07:53 | 37.97700 | 25.63277 | 40005 ft | 453 kts | 328° |
| 2026-04-23 07:54 | 38.03356 | 25.59726 | 40017 ft | 454 kts | 328° |
| 2026-04-23 07:54 | 38.08980 | 25.56190 | 40011 ft | 455 kts | 328° |
| 2026-04-23 07:55 | 38.14649 | 25.52619 | 40009 ft | 455 kts | 328° |
| 2026-04-23 07:55 | 38.20323 | 25.49039 | 40016 ft | 455 kts | 328° |
| 2026-04-23 07:56 | 38.25998 | 25.45452 | 40041 ft | 455 kts | 328° |
| 2026-04-23 07:56 | 38.31675 | 25.41857 | 40027 ft | 456 kts | 328° |
| 2026-04-23 07:57 | 38.37350 | 25.38258 | 40022 ft | 456 kts | 328° |
| 2026-04-23 07:57 | 38.43021 | 25.34655 | 40023 ft | 455 kts | 328° |
| 2026-04-23 07:58 | 38.48670 | 25.31059 | 40027 ft | 455 kts | 328° |
| 2026-04-23 07:58 | 38.54336 | 25.27445 | 40038 ft | 456 kts | 328° |
| 2026-04-23 07:59 | 38.60011 | 25.23820 | 40037 ft | 456 kts | 328° |
| 2026-04-23 07:59 | 38.65696 | 25.20181 | 40038 ft | 457 kts | 328° |
| 2026-04-23 08:00 | 38.71387 | 25.16532 | 40042 ft | 458 kts | 328° |
| 2026-04-23 08:00 | 38.77086 | 25.12872 | 40063 ft | 459 kts | 328° |
| 2026-04-23 08:01 | 38.82796 | 25.09198 | 40060 ft | 459 kts | 328° |
| 2026-04-23 08:01 | 38.88474 | 25.05539 | 40045 ft | 460 kts | 328° |
| 2026-04-23 08:02 | 38.94228 | 25.01823 | 40045 ft | 460 kts | 328° |
| 2026-04-23 08:02 | 38.99909 | 24.98148 | 40070 ft | 460 kts | 328° |
| 2026-04-23 08:03 | 39.05672 | 24.94411 | 40073 ft | 461 kts | 328° |
| 2026-04-23 08:03 | 39.11404 | 24.90702 | 40065 ft | 461 kts | 329° |
| 2026-04-23 08:04 | 39.17149 | 24.87134 | 40057 ft | 462 kts | 329° |
| 2026-04-23 08:04 | 39.22946 | 24.83570 | 40060 ft | 461 kts | 329° |
| 2026-04-23 08:05 | 39.28727 | 24.79987 | 40064 ft | 461 kts | 329° |
| 2026-04-23 08:05 | 39.34503 | 24.76390 | 40076 ft | 461 kts | 329° |
| 2026-04-23 08:06 | 39.40273 | 24.72788 | 40080 ft | 460 kts | 329° |
| 2026-04-23 08:06 | 39.46043 | 24.69180 | 40070 ft | 460 kts | 329° |
| 2026-04-23 08:07 | 39.51810 | 24.65568 | 40080 ft | 461 kts | 330° |
| 2026-04-23 08:07 | 39.57585 | 24.61950 | 40087 ft | 461 kts | 330° |
| 2026-04-23 08:08 | 39.63367 | 24.58320 | 40079 ft | 462 kts | 330° |
| 2026-04-23 08:08 | 39.69153 | 24.54680 | 40080 ft | 462 kts | 330° |
| 2026-04-23 08:09 | 39.74939 | 24.51033 | 40100 ft | 463 kts | 330° |
| 2026-04-23 08:09 | 39.80733 | 24.47374 | 40091 ft | 463 kts | 330° |
| 2026-04-23 08:10 | 39.86534 | 24.43703 | 40084 ft | 464 kts | 330° |
| 2026-04-23 08:10 | 39.95243 | 24.38180 | 40093 ft | 464 kts | 330° |
| 2026-04-23 08:11 | 40.01056 | 24.34485 | 40096 ft | 465 kts | 331° |
| 2026-04-23 08:11 | 40.06873 | 24.30780 | 40090 ft | 465 kts | 331° |
| 2026-04-23 08:12 | 40.12653 | 24.27092 | 40087 ft | 465 kts | 331° |
| 2026-04-23 08:12 | 40.18472 | 24.23371 | 40089 ft | 465 kts | 331° |
| 2026-04-23 08:13 | 40.24288 | 24.19645 | 40092 ft | 466 kts | 331° |
| 2026-04-23 08:13 | 40.30106 | 24.15911 | 40092 ft | 466 kts | 331° |
| 2026-04-23 08:14 | 40.35921 | 24.12172 | 40098 ft | 465 kts | 330° |
| 2026-04-23 08:14 | 40.41732 | 24.08427 | 40091 ft | 465 kts | 330° |
| 2026-04-23 08:15 | 40.47535 | 24.04680 | 40101 ft | 465 kts | 331° |
| 2026-04-23 08:15 | 40.53332 | 24.00930 | 40093 ft | 464 kts | 331° |
| 2026-04-23 08:16 | 40.59114 | 23.97183 | 40098 ft | 463 kts | 331° |
| 2026-04-23 08:16 | 40.64913 | 23.93494 | 40097 ft | 463 kts | 332° |
| 2026-04-23 08:17 | 40.70727 | 23.89861 | 40101 ft | 463 kts | 332° |
| 2026-04-23 08:17 | 40.76542 | 23.86214 | 40104 ft | 463 kts | 332° |
| 2026-04-23 08:18 | 40.82358 | 23.82547 | 40100 ft | 463 kts | 332° |
| 2026-04-23 08:18 | 40.88176 | 23.78868 | 40098 ft | 464 kts | 332° |
| 2026-04-23 08:19 | 40.94003 | 23.75175 | 40090 ft | 465 kts | 332° |
| 2026-04-23 08:19 | 40.99841 | 23.71469 | 40105 ft | 466 kts | 332° |
| 2026-04-23 08:20 | 41.05696 | 23.67745 | 40105 ft | 467 kts | 332° |
| 2026-04-23 08:20 | 41.11557 | 23.64009 | 40089 ft | 468 kts | 332° |
| 2026-04-23 08:21 | 41.17388 | 23.60285 | 40097 ft | 469 kts | 332° |
| 2026-04-23 08:21 | 41.23268 | 23.56523 | 40093 ft | 469 kts | 332° |
| 2026-04-23 08:22 | 41.29154 | 23.52755 | 40087 ft | 470 kts | 332° |
| 2026-04-23 08:22 | 41.35040 | 23.48981 | 40082 ft | 469 kts | 332° |
| 2026-04-23 08:23 | 41.40922 | 23.45202 | 40092 ft | 469 kts | 333° |
| 2026-04-23 08:23 | 41.46791 | 23.41390 | 40076 ft | 469 kts | 333° |
| 2026-04-23 08:24 | 41.52638 | 23.37567 | 40082 ft | 467 kts | 333° |
| 2026-04-23 08:24 | 41.58471 | 23.33747 | 40083 ft | 466 kts | 333° |
| 2026-04-23 08:25 | 41.64295 | 23.29929 | 40081 ft | 466 kts | 333° |
| 2026-04-23 08:25 | 41.70106 | 23.26113 | 40084 ft | 465 kts | 333° |
| 2026-04-23 08:26 | 41.75913 | 23.22292 | 40084 ft | 465 kts | 333° |
| 2026-04-23 08:26 | 41.81680 | 23.18490 | 40088 ft | 465 kts | 333° |
| 2026-04-23 08:27 | 41.87487 | 23.14652 | 40089 ft | 466 kts | 333° |
| 2026-04-23 08:27 | 41.93302 | 23.10803 | 40087 ft | 466 kts | 333° |
| 2026-04-23 08:28 | 41.98134 | 23.07598 | 40087 ft | 466 kts | 333° |
| 2026-04-23 08:28 | 42.03951 | 23.03733 | 40083 ft | 466 kts | 333° |
| 2026-04-23 08:29 | 42.09763 | 22.99862 | 40084 ft | 466 kts | 333° |
| 2026-04-23 08:29 | 42.15578 | 22.95983 | 40077 ft | 466 kts | 333° |
| 2026-04-23 08:30 | 42.21384 | 22.92100 | 40081 ft | 466 kts | 333° |
| 2026-04-23 08:30 | 42.27194 | 22.88208 | 40087 ft | 466 kts | 333° |
| 2026-04-23 08:31 | 42.32996 | 22.84311 | 40080 ft | 466 kts | 333° |
| 2026-04-23 08:31 | 42.38799 | 22.80408 | 40081 ft | 466 kts | 333° |
| 2026-04-23 08:32 | 42.44595 | 22.76499 | 40075 ft | 465 kts | 334° |
| 2026-04-23 08:32 | 42.50390 | 22.72584 | 40076 ft | 465 kts | 334° |
| 2026-04-23 08:33 | 42.56183 | 22.68663 | 40090 ft | 465 kts | 334° |
| 2026-04-23 08:33 | 42.61974 | 22.64733 | 40085 ft | 465 kts | 334° |
| 2026-04-23 08:34 | 42.67760 | 22.60799 | 40087 ft | 465 kts | 333° |
| 2026-04-23 08:34 | 42.73546 | 22.56857 | 40100 ft | 465 kts | 334° |
| 2026-04-23 08:35 | 42.79326 | 22.52911 | 40094 ft | 465 kts | 334° |
| 2026-04-23 08:35 | 42.85102 | 22.48959 | 40100 ft | 464 kts | 334° |
| 2026-04-23 08:36 | 42.90884 | 22.45025 | 40105 ft | 464 kts | 334° |
| 2026-04-23 08:36 | 42.96631 | 22.41121 | 40118 ft | 465 kts | 334° |
| 2026-04-23 08:37 | 43.02431 | 22.37169 | 40125 ft | 466 kts | 334° |
| 2026-04-23 08:37 | 43.08241 | 22.33200 | 40106 ft | 467 kts | 334° |
| 2026-04-23 08:38 | 43.14059 | 22.29216 | 40124 ft | 468 kts | 334° |
| 2026-04-23 08:38 | 43.19886 | 22.25215 | 40128 ft | 469 kts | 334° |
| 2026-04-23 08:39 | 43.25725 | 22.21198 | 40127 ft | 470 kts | 334° |
| 2026-04-23 08:39 | 43.31571 | 22.17168 | 40125 ft | 470 kts | 334° |
| 2026-04-23 08:40 | 43.37416 | 22.13129 | 40122 ft | 470 kts | 335° |
| 2026-04-23 08:40 | 43.43255 | 22.09086 | 40129 ft | 470 kts | 335° |
| 2026-04-23 08:41 | 43.49047 | 22.05068 | 40123 ft | 469 kts | 335° |
| 2026-04-23 08:41 | 43.54863 | 22.01023 | 40121 ft | 468 kts | 335° |
| 2026-04-23 08:42 | 43.60668 | 21.96977 | 40119 ft | 467 kts | 335° |
| 2026-04-23 08:42 | 43.66462 | 21.92930 | 40115 ft | 466 kts | 335° |
| 2026-04-23 08:43 | 43.72244 | 21.88883 | 40115 ft | 466 kts | 335° |
| 2026-04-23 08:43 | 43.78015 | 21.84835 | 40114 ft | 465 kts | 335° |
| 2026-04-23 08:44 | 43.83784 | 21.80780 | 40107 ft | 465 kts | 335° |
| 2026-04-23 08:44 | 43.89544 | 21.76721 | 40116 ft | 464 kts | 335° |
| 2026-04-23 08:45 | 43.95303 | 21.72655 | 40131 ft | 465 kts | 335° |
| 2026-04-23 08:45 | 44.01065 | 21.68577 | 40133 ft | 465 kts | 335° |
| 2026-04-23 08:46 | 44.06835 | 21.64486 | 40137 ft | 466 kts | 335° |
| 2026-04-23 08:46 | 44.12612 | 21.60381 | 40109 ft | 466 kts | 335° |
| 2026-04-23 08:47 | 44.18384 | 21.56268 | 40133 ft | 466 kts | 335° |
| 2026-04-23 08:47 | 44.24161 | 21.52144 | 40141 ft | 467 kts | 335° |
| 2026-04-23 08:48 | 44.29950 | 21.48003 | 40139 ft | 468 kts | 335° |
| 2026-04-23 08:48 | 44.35704 | 21.43876 | 40137 ft | 468 kts | 335° |
| 2026-04-23 08:49 | 44.41505 | 21.39706 | 40132 ft | 469 kts | 335° |
| 2026-04-23 08:49 | 44.47321 | 21.35518 | 40143 ft | 471 kts | 335° |
| 2026-04-23 08:50 | 44.53154 | 21.31308 | 40143 ft | 472 kts | 335° |
| 2026-04-23 08:50 | 44.58993 | 21.27083 | 40144 ft | 472 kts | 335° |
| 2026-04-23 08:51 | 44.64830 | 21.22849 | 40126 ft | 472 kts | 335° |
| 2026-04-23 08:51 | 44.70655 | 21.18614 | 40137 ft | 471 kts | 335° |
| 2026-04-23 08:52 | 44.76467 | 21.14380 | 40139 ft | 470 kts | 335° |
| 2026-04-23 08:52 | 44.82265 | 21.10146 | 40138 ft | 469 kts | 335° |
| 2026-04-23 08:53 | 44.88054 | 21.05909 | 40134 ft | 468 kts | 335° |
| 2026-04-23 08:53 | 44.93829 | 21.01673 | 40130 ft | 467 kts | 335° |
| 2026-04-23 08:54 | 44.99588 | 20.97438 | 40142 ft | 466 kts | 335° |
| 2026-04-23 08:54 | 45.05337 | 20.93202 | 40130 ft | 466 kts | 335° |
| 2026-04-23 08:55 | 45.11077 | 20.88963 | 40118 ft | 465 kts | 335° |
| 2026-04-23 08:55 | 45.16810 | 20.84719 | 40119 ft | 465 kts | 335° |
| 2026-04-23 08:56 | 45.22499 | 20.80498 | 40109 ft | 464 kts | 335° |
| 2026-04-23 08:56 | 45.28219 | 20.76244 | 40121 ft | 464 kts | 335° |
| 2026-04-23 08:57 | 45.33934 | 20.71985 | 40120 ft | 464 kts | 335° |
| 2026-04-23 08:57 | 45.39647 | 20.67716 | 40117 ft | 464 kts | 335° |
| 2026-04-23 08:58 | 45.45363 | 20.63437 | 40112 ft | 464 kts | 335° |
| 2026-04-23 08:58 | 45.51073 | 20.59151 | 40107 ft | 464 kts | 335° |
| 2026-04-23 08:59 | 45.56776 | 20.54861 | 40108 ft | 463 kts | 335° |
| 2026-04-23 08:59 | 45.62472 | 20.50565 | 40107 ft | 463 kts | 335° |
| 2026-04-23 09:00 | 45.68160 | 20.46267 | 40112 ft | 462 kts | 335° |
| 2026-04-23 09:00 | 45.73839 | 20.41965 | 40106 ft | 462 kts | 335° |
| 2026-04-23 09:01 | 45.79513 | 20.37657 | 40102 ft | 461 kts | 335° |
| 2026-04-23 09:01 | 45.85176 | 20.33347 | 40104 ft | 461 kts | 335° |
| 2026-04-23 09:02 | 45.90840 | 20.29026 | 40101 ft | 461 kts | 335° |
| 2026-04-23 09:02 | 45.96501 | 20.24698 | 40104 ft | 461 kts | 335° |
| 2026-04-23 09:03 | 46.02162 | 20.20360 | 40104 ft | 461 kts | 335° |
| 2026-04-23 09:03 | 46.07827 | 20.16007 | 40097 ft | 462 kts | 335° |
| 2026-04-23 09:04 | 46.13496 | 20.11642 | 40101 ft | 462 kts | 335° |
| 2026-04-23 09:04 | 46.19159 | 20.07241 | 40101 ft | 463 kts | 334° |
| 2026-04-23 09:05 | 46.24796 | 20.02719 | 40103 ft | 464 kts | 334° |
| 2026-04-23 09:05 | 46.30432 | 19.98166 | 40100 ft | 464 kts | 334° |
| 2026-04-23 09:06 | 46.36073 | 19.93612 | 40103 ft | 464 kts | 334° |
| 2026-04-23 09:06 | 46.41715 | 19.89057 | 40101 ft | 464 kts | 334° |
| 2026-04-23 09:07 | 46.47293 | 19.84544 | 40108 ft | 464 kts | 334° |
| 2026-04-23 09:07 | 46.52933 | 19.79972 | 40102 ft | 464 kts | 334° |
| 2026-04-23 09:08 | 46.58567 | 19.75392 | 40083 ft | 464 kts | 334° |
| 2026-04-23 09:08 | 46.64193 | 19.70807 | 40109 ft | 463 kts | 334° |
| 2026-04-23 09:09 | 46.69810 | 19.66219 | 40105 ft | 463 kts | 334° |
| 2026-04-23 09:09 | 46.75391 | 19.61649 | 40103 ft | 463 kts | 334° |
| 2026-04-23 09:10 | 46.83847 | 19.54705 | 40099 ft | 463 kts | 334° |
| 2026-04-23 09:11 | 46.89459 | 19.50082 | 40083 ft | 463 kts | 334° |
| 2026-04-23 09:11 | 46.95069 | 19.45450 | 40103 ft | 463 kts | 334° |
| 2026-04-23 09:12 | 47.00633 | 19.40844 | 40098 ft | 463 kts | 334° |
| 2026-04-23 09:12 | 47.06233 | 19.36197 | 40102 ft | 463 kts | 334° |
| 2026-04-23 09:13 | 47.11832 | 19.31539 | 40096 ft | 462 kts | 334° |
| 2026-04-23 09:13 | 47.17426 | 19.26874 | 40094 ft | 462 kts | 334° |
| 2026-04-23 09:14 | 47.23007 | 19.22208 | 40097 ft | 462 kts | 334° |
| 2026-04-23 09:14 | 47.28592 | 19.17530 | 39930 ft | 464 kts | 334° |
| 2026-04-23 09:14 | 47.31333 | 19.14945 | 39199 ft | 472 kts | 325° |
| 2026-04-23 09:15 | 47.33725 | 19.11614 | 38495 ft | 475 kts | 315° |
| 2026-04-23 09:15 | 47.35740 | 19.07736 | 37687 ft | 478 kts | 306° |
| 2026-04-23 09:15 | 47.37292 | 19.03382 | 36887 ft | 481 kts | 299° |
| 2026-04-23 09:15 | 47.38660 | 18.98888 | 36089 ft | 480 kts | 298° |
| 2026-04-23 09:16 | 47.40007 | 18.94378 | 35249 ft | 480 kts | 298° |
| 2026-04-23 09:16 | 47.41367 | 18.89861 | 34344 ft | 482 kts | 299° |
| 2026-04-23 09:16 | 47.42749 | 18.85338 | 33276 ft | 485 kts | 300° |
| 2026-04-23 09:16 | 47.44150 | 18.80806 | 32406 ft | 483 kts | 300° |
| 2026-04-23 09:17 | 47.45537 | 18.76338 | 31783 ft | 476 kts | 300° |
| 2026-04-23 09:17 | 47.46448 | 18.73408 | 31343 ft | 472 kts | 300° |
| 2026-04-23 09:17 | 47.47810 | 18.69025 | 30720 ft | 467 kts | 300° |
| 2026-04-23 09:17 | 47.49156 | 18.64688 | 30065 ft | 462 kts | 300° |
| 2026-04-23 09:18 | 47.50487 | 18.60389 | 29340 ft | 457 kts | 300° |
| 2026-04-23 09:18 | 47.51799 | 18.56144 | 28689 ft | 451 kts | 300° |
| 2026-04-23 09:18 | 47.53093 | 18.51946 | 28034 ft | 446 kts | 300° |
| 2026-04-23 09:18 | 47.54313 | 18.47738 | 27363 ft | 444 kts | 295° |
| 2026-04-23 09:19 | 47.55277 | 18.43404 | 26719 ft | 442 kts | 292° |
| 2026-04-23 09:19 | 47.56181 | 18.39073 | 26080 ft | 438 kts | 292° |
| 2026-04-23 09:19 | 47.57070 | 18.34780 | 25466 ft | 435 kts | 292° |
| 2026-04-23 09:19 | 47.57956 | 18.30525 | 24846 ft | 431 kts | 292° |
| 2026-04-23 09:20 | 47.58841 | 18.26295 | 24234 ft | 428 kts | 292° |
| 2026-04-23 09:20 | 47.59720 | 18.22113 | 23688 ft | 424 kts | 292° |
| 2026-04-23 09:20 | 47.60596 | 18.17955 | 23019 ft | 421 kts | 292° |
| 2026-04-23 09:20 | 47.61466 | 18.13827 | 22401 ft | 418 kts | 292° |
| 2026-04-23 09:21 | 47.62328 | 18.09730 | 21795 ft | 415 kts | 292° |
| 2026-04-23 09:21 | 47.63183 | 18.05662 | 21217 ft | 412 kts | 292° |
| 2026-04-23 09:21 | 47.64023 | 18.01654 | 20655 ft | 410 kts | 292° |
| 2026-04-23 09:21 | 47.64853 | 17.97685 | 20079 ft | 408 kts | 292° |
| 2026-04-23 09:22 | 47.65690 | 17.93680 | 19533 ft | 406 kts | 292° |
| 2026-04-23 09:22 | 47.66523 | 17.89682 | 18969 ft | 405 kts | 292° |
| 2026-04-23 09:22 | 47.67350 | 17.85704 | 18405 ft | 403 kts | 292° |
| 2026-04-23 09:22 | 47.68173 | 17.81738 | 17799 ft | 402 kts | 292° |
| 2026-04-23 09:23 | 47.68992 | 17.77785 | 17239 ft | 399 kts | 292° |
| 2026-04-23 09:23 | 47.69802 | 17.73861 | 16670 ft | 396 kts | 292° |
| 2026-04-23 09:23 | 47.70605 | 17.69966 | 16122 ft | 393 kts | 292° |
| 2026-04-23 09:23 | 47.71402 | 17.66094 | 15577 ft | 390 kts | 292° |
| 2026-04-23 09:24 | 47.72194 | 17.62246 | 14917 ft | 391 kts | 292° |
| 2026-04-23 09:24 | 47.72986 | 17.58389 | 14298 ft | 390 kts | 292° |
| 2026-04-23 09:24 | 47.73774 | 17.54539 | 13644 ft | 389 kts | 292° |
| 2026-04-23 09:24 | 47.74512 | 17.50734 | 13064 ft | 377 kts | 287° |
| 2026-04-23 09:25 | 47.74621 | 17.46882 | 12552 ft | 372 kts | 268° |
| 2026-04-23 09:25 | 47.74248 | 17.43120 | 12075 ft | 366 kts | 267° |
| 2026-04-23 09:25 | 47.73941 | 17.39373 | 11552 ft | 365 kts | 269° |
| 2026-04-23 09:25 | 47.73670 | 17.35626 | 11042 ft | 364 kts | 269° |
| 2026-04-23 09:26 | 47.73412 | 17.31941 | 10655 ft | 361 kts | 269° |
| 2026-04-23 09:26 | 47.73153 | 17.28291 | 10496 ft | 350 kts | 269° |
| 2026-04-23 09:26 | 47.72901 | 17.24750 | 10347 ft | 340 kts | 269° |
| 2026-04-23 09:26 | 47.72653 | 17.21305 | 10200 ft | 331 kts | 269° |
| 2026-04-23 09:27 | 47.72413 | 17.17959 | 10067 ft | 322 kts | 269° |
| 2026-04-23 09:27 | 47.72176 | 17.14686 | 9824 ft | 313 kts | 269° |
| 2026-04-23 09:27 | 47.71945 | 17.11585 | 9629 ft | 293 kts | 270° |
| 2026-04-23 09:27 | 47.71726 | 17.08623 | 9192 ft | 285 kts | 270° |
| 2026-04-23 09:28 | 47.71620 | 17.05734 | 8860 ft | 273 kts | 284° |
| 2026-04-23 09:28 | 47.72246 | 17.03196 | 8542 ft | 254 kts | 306° |
| 2026-04-23 09:28 | 47.73104 | 17.00959 | 8255 ft | 247 kts | 305° |
| 2026-04-23 09:28 | 47.73932 | 16.98718 | 7981 ft | 248 kts | 304° |
| 2026-04-23 09:29 | 47.74760 | 16.96474 | 7711 ft | 248 kts | 304° |
| 2026-04-23 09:29 | 47.75590 | 16.94223 | 7440 ft | 248 kts | 304° |
| 2026-04-23 09:29 | 47.76421 | 16.91974 | 7143 ft | 249 kts | 304° |
| 2026-04-23 09:29 | 47.77252 | 16.89718 | 6861 ft | 249 kts | 304° |
| 2026-04-23 09:30 | 47.78077 | 16.87472 | 6575 ft | 242 kts | 304° |
| 2026-04-23 09:30 | 47.78863 | 16.85328 | 6296 ft | 233 kts | 304° |
| 2026-04-23 09:30 | 47.79634 | 16.83227 | 6033 ft | 231 kts | 303° |
| 2026-04-23 09:30 | 47.80398 | 16.81151 | 5760 ft | 223 kts | 303° |
| 2026-04-23 09:31 | 47.81120 | 16.79180 | 5513 ft | 213 kts | 303° |
| 2026-04-23 09:31 | 47.81823 | 16.77266 | 5283 ft | 209 kts | 302° |
| 2026-04-23 09:31 | 47.82514 | 16.75381 | 5061 ft | 206 kts | 302° |
| 2026-04-23 09:31 | 47.83184 | 16.73547 | 4833 ft | 203 kts | 302° |
| 2026-04-23 09:32 | 47.83860 | 16.71696 | 4607 ft | 199 kts | 302° |
| 2026-04-23 09:32 | 47.84670 | 16.70140 | 4358 ft | 185 kts | 327° |
| 2026-04-23 09:32 | 47.85798 | 16.69407 | 4240 ft | 173 kts | 336° |
| 2026-04-23 09:32 | 47.86919 | 16.68672 | 4133 ft | 173 kts | 336° |
| 2026-04-23 09:33 | 47.88029 | 16.68028 | 4065 ft | 170 kts | 339° |
| 2026-04-23 09:33 | 47.89144 | 16.67482 | 4010 ft | 168 kts | 340° |
| 2026-04-23 09:33 | 47.90266 | 16.66981 | 3994 ft | 168 kts | 341° |
| 2026-04-23 09:33 | 47.91358 | 16.66513 | 4028 ft | 161 kts | 340° |
| 2026-04-23 09:34 | 47.92402 | 16.66069 | 3987 ft | 152 kts | 340° |
| 2026-04-23 09:34 | 47.93437 | 16.65630 | 3777 ft | 155 kts | 341° |
| 2026-04-23 09:34 | 47.94469 | 16.65197 | 3564 ft | 153 kts | 341° |
| 2026-04-23 09:34 | 47.95466 | 16.64782 | 3399 ft | 143 kts | 340° |
| 2026-04-23 09:35 | 47.96408 | 16.64385 | 3185 ft | 137 kts | 340° |
| 2026-04-23 09:35 | 47.97302 | 16.64006 | 2994 ft | 131 kts | 340° |
| 2026-04-23 09:35 | 47.98186 | 16.63634 | 2840 ft | 133 kts | 340° |
| 2026-04-23 09:35 | 47.99076 | 16.63261 | 2639 ft | 128 kts | 341° |
| 2026-04-23 09:36 | 47.99881 | 16.62925 | 2470 ft | 113 kts | 340° |
| 2026-04-23 09:36 | 48.00621 | 16.62612 | 2257 ft | 110 kts | 340° |
| 2026-04-23 09:36 | 48.01370 | 16.62304 | 2142 ft | 114 kts | 340° |
| 2026-04-23 09:36 | 48.02140 | 16.61984 | 2003 ft | 115 kts | 340° |
| 2026-04-23 09:37 | 48.02913 | 16.61657 | 1811 ft | 116 kts | 339° |
| 2026-04-23 09:37 | 48.03685 | 16.61315 | 1623 ft | 115 kts | 339° |
| 2026-04-23 09:37 | 48.04454 | 16.60987 | 1398 ft | 115 kts | 341° |
| 2026-04-23 09:37 | 48.05218 | 16.60670 | 1274 ft | 115 kts | 345° |
| 2026-04-23 09:38 | 48.05998 | 16.60341 | 1114 ft | 117 kts | 342° |
| 2026-04-23 09:38 | 48.06788 | 16.60010 | 996 ft | 121 kts | 343° |
| 2026-04-23 09:38 | 48.07598 | 16.59678 | 939 ft | 117 kts | 342° |
| 2026-04-23 09:38 | 48.08357 | 16.59353 | 752 ft | 112 kts | 340° |
| 2026-04-23 09:39 | 48.09118 | 16.59028 | 637 ft | 113 kts | 340° |
| 2026-04-23 09:39 | 48.09780 | 16.58742 | 627 ft | 83 kts | 345° |
| 2026-04-23 09:39 | 48.10220 | 16.58560 | 625 ft | 54 kts | 344° |
| 2026-04-23 09:39 | 48.10538 | 16.58425 | 628 ft | 39 kts | 344° |
| 2026-04-23 09:40 | 48.10777 | 16.58322 | 624 ft | 33 kts | 343° |
| 2026-04-23 09:40 | 48.10958 | 16.58222 | 627 ft | 24 kts | 324° |
| 2026-04-23 09:40 | 48.11057 | 16.58028 | 619 ft | 23 kts | 294° |
| 2026-04-23 09:40 | 48.11120 | 16.57830 | 625 ft | 19 kts | 296° |
| 2026-04-23 09:41 | 48.11172 | 16.57674 | 623 ft | 15 kts | 296° |
| 2026-04-23 09:41 | 48.11218 | 16.57530 | 618 ft | 15 kts | 296° |
| 2026-04-23 09:41 | 48.11266 | 16.57383 | 625 ft | 17 kts | 296° |
| 2026-04-23 09:41 | 48.11317 | 16.57226 | 628 ft | 17 kts | 295° |
| 2026-04-23 09:42 | 48.11367 | 16.57071 | 626 ft | 14 kts | 296° |
| 2026-04-23 09:42 | 48.11409 | 16.56945 | 618 ft | 13 kts | 296° |
| 2026-04-23 09:42 | 48.11448 | 16.56828 | 624 ft | 13 kts | 297° |
| 2026-04-23 09:42 | 48.11487 | 16.56712 | 625 ft | 13 kts | 297° |
| 2026-04-23 09:43 | 48.11527 | 16.56596 | 625 ft | 13 kts | 297° |
| 2026-04-23 09:43 | 48.11565 | 16.56480 | 623 ft | 13 kts | 296° |
| 2026-04-23 09:43 | 48.11604 | 16.56363 | 628 ft | 13 kts | 296° |
| 2026-04-23 09:43 | 48.11653 | 16.56262 | 624 ft | 12 kts | 338° |
| 2026-04-23 09:44 | 48.11734 | 16.56301 | 625 ft | 13 kts | 30° |
| 2026-04-23 09:44 | 48.11742 | 16.56416 | 624 ft | 13 kts | 115° |
| 2026-04-23 09:44 | 48.11704 | 16.56535 | 626 ft | 13 kts | 115° |
| 2026-04-23 09:44 | 48.11667 | 16.56652 | 625 ft | 11 kts | 115° |
| 2026-04-23 09:45 | 48.11644 | 16.56722 | 624 ft | 6 kts | 115° |
| 2026-04-23 09:45 | 48.11633 | 16.56780 | 624 ft | 6 kts | 84° |
| 2026-04-23 09:45 | 48.11663 | 16.56822 | 621 ft | 6 kts | 32° |
| 2026-04-23 09:45 | 48.11684 | 16.56839 | 628 ft | 1 kts | 27° |
| 2026-04-23 09:46 | 48.11685 | 16.56840 | 628 ft | 0 kts | 27° |